Time;durP1;ratioP1;P1;durP2;ratioP2;P2;SDS_P1;SDS_P2;PMS_P1;PMS_P2;Temp;Humidity;BMP_temperature;BMP_pressure;BME280_temperature;BME280_humidity;BME280_pressure;Samples;Min_cycle;Max_cycle;Signal;HPM_P1;HPM_P2
2022/11/24 00:00:49;;;;;;;7.70;6.80;;;;;;;11.77;100.00;-13001.38;5094650;28;20278;-61
2022/11/24 00:03:17;;;;;;;6.87;6.23;;;;;;;11.81;100.00;-13958.59;5094781;28;20275;-60
2022/11/24 00:05:44;;;;;;;6.80;6.40;;;;;;;12.01;100.00;-14280.88;5095060;28;20606;-60
2022/11/24 00:08:12;;;;;;;8.27;7.00;;;;;;;11.97;100.00;-13642.41;5094729;28;20181;-60
2022/11/24 00:10:39;;;;;;;7.80;7.03;;;;;;;12.05;100.00;-13962.69;5094915;28;20184;-61
2022/11/24 00:13:06;;;;;;;8.40;6.43;;;;;;;11.84;100.00;-13002.47;5094486;28;20190;-61
2022/11/24 00:15:33;;;;;;;8.37;7.07;;;;;;;11.76;100.00;-13001.22;5093350;28;20191;-61
2022/11/24 00:18:00;;;;;;;8.43;6.57;;;;;;;11.69;100.00;-13318.97;5094519;28;20184;-61
2022/11/24 00:20:28;;;;;;;6.13;5.77;;;;;;;11.76;100.00;-14595.13;5094429;28;20184;-61
2022/11/24 00:22:55;;;;;;;9.13;5.90;;;;;;;11.77;100.00;-14595.31;5094368;28;20202;-60
2022/11/24 00:25:23;;;;;;;5.77;5.47;;;;;;;11.80;100.00;-13958.44;5094387;28;20218;-61
2022/11/24 00:27:50;;;;;;;11.20;6.07;;;;;;;11.72;100.00;-13638.28;5094348;28;20180;-61
2022/11/24 00:30:17;;;;;;;7.77;6.10;;;;;;;11.54;100.00;-13316.44;5092274;28;20195;-62
2022/11/24 00:32:44;;;;;;;15.97;5.47;;;;;;;11.42;100.00;-12995.88;5094370;28;20228;-62
2022/11/24 00:35:11;;;;;;;16.73;6.93;;;;;;;11.43;100.00;-13633.47;5094570;28;20542;-61
2022/11/24 00:37:39;;;;;;;6.13;5.63;;;;;;;11.10;100.00;-13627.78;5094383;28;20218;-60
2022/11/24 00:40:08;;;;;;;6.60;5.90;;;;;;;11.14;100.00;-14265.44;5094233;28;20195;-61
2022/11/24 00:42:34;;;;;;;14.93;6.40;;;;;;;11.29;100.00;-14268.06;5092818;28;20279;-61
2022/11/24 00:45:01;;;;;;;6.50;5.90;;;;;;;11.24;100.00;-14267.16;5094447;28;20704;-61
2022/11/24 00:47:31;;;;;;;7.63;6.20;;;;;;;11.20;100.00;-14266.53;5094024;28;20184;-61
2022/11/24 00:49:58;;;;;;;6.93;6.13;;;;;;;11.11;100.00;-14264.91;5093906;28;20181;-61
2022/11/24 00:52:25;;;;;;;7.77;4.80;;;;;;;11.13;100.00;-14583.56;5093849;28;20278;-61
2022/11/24 00:54:53;;;;;;;6.47;4.70;;;;;;;11.25;100.00;-15222.63;5093813;28;20192;-61
2022/11/24 00:57:20;;;;;;;6.20;4.70;;;;;;;11.14;100.00;-14902.22;5094212;28;20642;-62
2022/11/24 00:59:47;;;;;;;9.03;4.53;;;;;;;11.21;100.00;-15221.84;5093998;28;20495;-61
2022/11/24 01:02:14;;;;;;;4.50;4.10;;;;;;;11.14;100.00;-15220.56;5093730;28;20184;-64
2022/11/24 01:04:41;;;;;;;12.17;3.93;;;;;;;11.30;100.00;-14905.25;5093505;28;20206;-61
2022/11/24 01:07:08;;;;;;;4.43;3.63;;;;;;;11.23;100.00;-14903.94;5093844;28;20629;-61
2022/11/24 01:09:34;;;;;;;5.40;4.90;;;;;;;11.19;100.00;-13947.88;5093810;28;20661;-61
2022/11/24 01:12:03;;;;;;;4.97;4.40;;;;;;;11.33;100.00;-12994.53;5093742;28;20271;-61
2022/11/24 01:14:31;;;;;;;5.93;3.73;;;;;;;11.22;100.00;-12674.19;5093741;28;20191;-61
2022/11/24 01:16:58;;;;;;;8.90;4.10;;;;;;;11.09;100.00;-11397.75;5093683;28;20180;-61
2022/11/24 01:19:25;;;;;;;4.20;3.90;;;;;;;10.93;100.00;-12351.25;5093363;28;20188;-61
2022/11/24 01:21:52;;;;;;;3.90;3.70;;;;;;;10.85;100.00;-12350.06;5093207;28;20188;-60
2022/11/24 01:24:19;;;;;;;5.23;4.50;;;;;;;10.73;100.00;-12666.72;5093157;28;20211;-60
2022/11/24 01:26:46;;;;;;;5.13;4.50;;;;;;;10.82;100.00;-12986.44;5093388;28;20196;-61
2022/11/24 01:29:15;;;;;;;4.10;3.87;;;;;;;10.75;100.00;-13622.03;5093438;28;20195;-61
2022/11/24 01:31:41;;;;;;;6.30;4.40;;;;;;;10.61;100.00;-13619.66;5093273;28;20185;-61
2022/11/24 01:34:08;;;;;;;4.70;4.43;;;;;;;10.39;100.00;-13616.03;5093470;28;20238;-61
2022/11/24 01:36:35;;;;;;;6.17;4.50;;;;;;;10.40;100.00;-13616.09;5093322;28;20744;-61
2022/11/24 01:39:02;;;;;;;5.50;4.57;;;;;;;10.25;100.00;-13613.66;5092917;28;20187;-61
2022/11/24 01:41:29;;;;;;;4.20;3.80;;;;;;;10.22;100.00;-13613.13;5092867;28;20198;-60
2022/11/24 01:43:57;;;;;;;4.80;4.30;;;;;;;10.15;100.00;-13611.94;5092693;28;20211;-63
2022/11/24 01:46:30;;;;;;;4.93;4.43;;;;;;;10.17;100.00;-13294.22;5093112;28;20184;-61
2022/11/24 01:49:03;;;;;;;9.33;4.67;;;;;;;10.29;100.00;-13296.25;5093130;28;20184;-61
2022/11/24 01:51:33;;;;;;;5.10;4.50;;;;;;;10.38;100.00;-13615.75;5092915;28;20184;-61
2022/11/24 01:54:04;;;;;;;5.33;4.80;;;;;;;10.43;100.00;-13616.69;5092721;28;20203;-61
2022/11/24 01:56:34;;;;;;;8.93;4.60;;;;;;;10.31;100.00;-13296.59;5092906;28;20285;-61
2022/11/24 01:59:03;;;;;;;8.03;4.17;;;;;;;10.38;100.00;-13297.75;5092560;28;20275;-61
2022/11/24 02:01:32;;;;;;;12.73;4.40;;;;;;;10.44;100.00;-12980.47;5092555;28;20267;-61
2022/11/24 02:04:00;;;;;;;4.67;4.03;;;;;;;10.42;100.00;-12980.22;5092348;28;20210;-60
2022/11/24 02:06:30;;;;;;;8.43;4.53;;;;;;;10.25;100.00;-12659.44;5092400;28;20263;-60
2022/11/24 02:09:00;;;;;;;11.43;4.73;;;;;;;10.27;100.00;-12659.72;5092708;28;20191;-61
2022/11/24 02:11:31;;;;;;;4.73;3.57;;;;;;;10.34;100.00;-12660.72;5092421;28;20194;-61
2022/11/24 02:13:58;;;;;;;5.67;4.17;;;;;;;10.38;100.00;-12979.59;5092396;28;20219;-61
2022/11/24 02:16:25;;;;;;;7.70;4.17;;;;;;;10.24;100.00;-13295.44;5092575;28;20627;-61
2022/11/24 02:18:54;;;;;;;7.93;3.87;;;;;;;10.31;100.00;-12660.28;5092265;28;20190;-61
2022/11/24 02:21:21;;;;;;;7.97;4.10;;;;;;;10.24;100.00;-12341.13;5092445;28;20185;-60
2022/11/24 02:23:55;;;;;;;4.70;4.13;;;;;;;10.19;100.00;-12976.56;5092098;28;20188;-61
2022/11/24 02:26:43;;;;;;;9.47;4.03;;;;;;;9.96;100.00;-12972.91;5092214;28;20189;-60
2022/11/24 02:29:11;;;;;;;11.50;5.17;;;;;;;9.92;100.00;-13290.19;5092048;28;20278;-62
2022/11/24 02:31:38;;;;;;;7.13;4.90;;;;;;;10.08;100.00;-13292.88;5092329;28;20585;-60
2022/11/24 02:34:05;;;;;;;10.87;4.87;;;;;;;10.00;100.00;-12973.53;5091877;28;20583;-61
2022/11/24 02:36:32;;;;;;;19.20;4.63;;;;;;;9.96;100.00;-12972.91;5092226;28;20216;-61
2022/11/24 02:38:59;;;;;;;11.43;4.73;;;;;;;9.99;100.00;-12655.41;5092303;28;20184;-61
2022/11/24 02:41:28;;;;;;;15.03;4.37;;;;;;;10.07;100.00;-12656.66;5092205;28;20566;-61
2022/11/24 02:44:00;;;;;;;6.00;4.73;;;;;;;9.91;100.00;-12972.13;5092076;28;20192;-61
2022/11/24 02:46:26;;;;;;;6.10;4.33;;;;;;;9.88;100.00;-12653.78;5092185;28;20653;-61
2022/11/24 02:48:53;;;;;;;11.73;5.20;;;;;;;9.67;100.00;-12332.72;5091920;28;20205;-61
2022/11/24 02:51:21;;;;;;;15.93;5.33;;;;;;;9.58;100.00;-12967.00;5092171;28;20554;-61
2022/11/24 02:53:47;;;;;;;8.93;5.10;;;;;;;9.54;100.00;-12966.28;5091537;28;20630;-61
2022/11/24 02:56:14;;;;;;;7.70;5.00;;;;;;;9.56;100.00;-12966.69;5092085;28;20631;-60
2022/11/24 02:58:41;;;;;;;8.77;4.50;;;;;;;9.67;100.00;-12968.38;5092120;28;20583;-61
2022/11/24 03:01:10;;;;;;;9.00;4.60;;;;;;;9.59;100.00;-12649.41;5090689;28;20184;-62
2022/11/24 03:03:37;;;;;;;9.40;4.30;;;;;;;9.50;100.00;-12012.41;5091892;28;20190;-60
2022/11/24 03:06:04;;;;;;;6.47;4.33;;;;;;;9.60;100.00;-12013.91;5091599;28;20294;-61
2022/11/24 03:08:31;;;;;;;11.47;4.20;;;;;;;9.34;100.00;-11692.44;5092020;28;20558;-60
2022/11/24 03:10:58;;;;;;;9.97;4.07;;;;;;;9.16;100.00;-11689.94;5092003;28;20184;-60
2022/11/24 03:13:24;;;;;;;6.57;4.93;;;;;;;9.27;100.00;-12962.06;5091885;28;20190;-62
2022/11/24 03:15:51;;;;;;;12.40;5.10;;;;;;;9.15;100.00;-12960.16;5091988;28;20635;-60
2022/11/24 03:18:20;;;;;;;4.17;3.80;;;;;;;9.35;100.00;-13598.53;5091824;28;20273;-61
2022/11/24 03:20:47;;;;;;;4.40;4.00;;;;;;;9.35;100.00;-14233.63;5091506;28;20184;-61
2022/11/24 03:23:13;;;;;;;5.37;4.07;;;;;;;9.81;100.00;-14241.81;5091824;28;20208;-61
2022/11/24 03:25:40;;;;;;;6.50;3.97;;;;;;;9.67;100.00;-12968.28;5091738;28;20208;-61
2022/11/24 03:28:07;;;;;;;4.47;4.20;;;;;;;9.75;100.00;-11698.06;5090703;28;20199;-60
2022/11/24 03:30:34;;;;;;;3.37;3.10;;;;;;;9.75;100.00;-11698.00;5091795;28;20609;-60
2022/11/24 03:33:03;;;;;;;3.63;3.40;;;;;;;9.97;100.00;-12655.09;5091700;28;20267;-60
2022/11/24 03:35:32;;;;;;;5.10;3.60;;;;;;;10.05;100.00;-12656.34;5091744;28;20516;-61
2022/11/24 03:37:59;;;;;;;4.10;3.60;;;;;;;10.08;100.00;-12338.75;5091735;28;20631;-60
2022/11/24 03:40:26;;;;;;;5.23;3.70;;;;;;;10.10;100.00;-11702.84;5091863;28;20358;-61
2022/11/24 03:42:52;;;;;;;6.87;3.00;;;;;;;10.07;100.00;-11702.41;5091369;28;20605;-62
2022/11/24 03:45:19;;;;;;;6.53;3.07;;;;;;;10.07;100.00;-12974.66;5091419;28;20208;-61
2022/11/24 03:47:50;;;;;;;8.33;3.03;;;;;;;10.04;100.00;-13610.09;5091301;28;20279;-61
2022/11/24 03:50:17;;;;;;;9.13;6.20;;;;;;;10.26;100.00;-14567.69;5091588;28;20607;-60
2022/11/24 03:52:45;;;;;;;11.00;8.37;;;;;;;10.37;100.00;-14887.69;5090256;28;20550;-61
2022/11/24 03:55:12;;;;;;;15.27;10.80;;;;;;;10.40;100.00;-14888.25;5091541;28;20192;-61
2022/11/24 03:57:39;;;;;;;14.23;11.23;;;;;;;10.47;100.00;-14889.69;5091312;28;20184;-62
2022/11/24 04:00:08;;;;;;;8.50;7.60;;;;;;;10.33;100.00;-14569.06;5091243;28;20195;-61
2022/11/24 04:02:34;;;;;;;12.50;11.30;;;;;;;10.33;100.00;-13933.06;5091421;28;20191;-61
2022/11/24 04:05:01;;;;;;;14.53;10.70;;;;;;;10.23;100.00;-14567.13;5091878;28;20208;-61
2022/11/24 04:07:28;;;;;;;8.73;8.10;;;;;;;10.22;100.00;-14884.84;5094773;28;20194;-61
2022/11/24 04:09:57;;;;;;;12.47;8.07;;;;;;;10.23;100.00;-14567.13;5094803;28;20188;-61
2022/11/24 04:15:09;;;;;;;8.37;7.50;;;;;;;10.28;100.00;-13614.16;5094948;28;20183;-60
2022/11/24 04:17:35;;;;;;;7.30;6.80;;;;;;;10.28;100.00;-12978.00;5094810;28;20211;-60
2022/11/24 04:20:03;;;;;;;8.63;7.70;;;;;;;10.37;100.00;-12979.34;5094581;28;20184;-60
2022/11/24 04:22:30;;;;;;;8.70;7.90;;;;;;;10.33;100.00;-12660.66;5094854;28;20627;-61
2022/11/24 04:24:58;;;;;;;7.27;6.77;;;;;;;10.26;100.00;-12659.56;5093194;28;20204;-61
2022/11/24 04:27:25;;;;;;;8.17;7.67;;;;;;;10.20;100.00;-13294.78;5094423;28;20189;-61
2022/11/24 04:29:52;;;;;;;9.70;9.10;;;;;;;10.26;100.00;-13613.81;5094256;28;20216;-61
2022/11/24 04:32:19;;;;;;;9.73;8.77;;;;;;;10.22;100.00;-13931.13;5094237;28;20180;-59
2022/11/24 04:34:46;;;;;;;10.80;9.47;;;;;;;10.13;100.00;-13929.56;5054060;28;20190;-62
2022/11/24 04:37:13;;;;;;;9.93;8.97;;;;;;;10.10;100.00;-14246.94;5054209;28;20251;-60
2022/11/24 04:39:40;;;;;;;11.23;9.97;;;;;;;10.27;100.00;-14250.00;5053744;28;20205;-61
2022/11/24 04:42:08;;;;;;;9.90;9.00;;;;;;;10.30;100.00;-14568.44;5054106;28;20509;-60
2022/11/24 04:44:35;;;;;;;11.33;10.10;;;;;;;10.20;100.00;-14566.66;5053941;28;20190;-61
2022/11/24 04:47:02;;;;;;;13.03;10.20;;;;;;;10.34;100.00;-14569.25;5053861;28;20189;-61
2022/11/24 04:49:29;;;;;;;11.13;10.03;;;;;;;10.47;100.00;-14571.56;5053775;28;20196;-61
2022/11/24 04:51:56;;;;;;;14.53;11.40;;;;;;;10.48;100.00;-14571.84;5053982;28;20601;-61
2022/11/24 04:54:23;;;;;;;24.97;14.50;;;;;;;10.47;100.00;-14253.59;5053920;28;20197;-61
2022/11/24 04:56:51;;;;;;;17.67;10.90;;;;;;;10.38;100.00;-13933.94;5053476;28;20185;-61
2022/11/24 04:59:19;;;;;;;16.27;11.27;;;;;;;10.44;100.00;-13616.78;5053916;28;20595;-60
2022/11/24 05:01:47;;;;;;;19.47;10.60;;;;;;;10.46;100.00;-13617.13;5053653;28;20186;-61
2022/11/24 05:04:15;;;;;;;18.87;11.43;;;;;;;10.47;100.00;-13935.41;5053700;28;20641;-62
2022/11/24 05:06:42;;;;;;;19.33;10.90;;;;;;;10.37;100.00;-14251.81;5053496;28;20205;-61
2022/11/24 05:09:14;;;;;;;19.03;10.17;;;;;;;10.33;100.00;-14886.94;5053590;28;20189;-60
2022/11/24 05:11:40;;;;;;;25.13;11.23;;;;;;;10.34;100.00;-15840.84;5053477;28;20613;-61
2022/11/24 05:14:07;;;;;;;31.30;12.77;;;;;;;10.08;100.00;-16153.28;5053610;28;20277;-61
2022/11/24 05:16:36;;;;;;;12.20;9.70;;;;;;;10.30;100.00;-16475.63;5053198;28;20689;-62
2022/11/24 05:19:03;;;;;;;10.37;9.67;;;;;;;10.27;100.00;-16475.06;5053315;28;20636;-60
2022/11/24 05:21:30;;;;;;;15.10;11.63;;;;;;;10.22;100.00;-16156.25;5053069;28;20220;-61
2022/11/24 05:23:57;;;;;;;18.03;12.30;;;;;;;10.20;100.00;-15837.94;5053354;28;20193;-61
2022/11/24 05:26:24;;;;;;;33.13;11.83;;;;;;;10.15;100.00;-15201.44;5053031;28;20209;-61
2022/11/24 05:28:51;;;;;;;12.93;11.20;;;;;;;10.13;100.00;-14883.22;5053336;28;20185;-61
2022/11/24 05:31:19;;;;;;;14.77;12.10;;;;;;;10.01;100.00;-14880.94;5053211;28;20185;-60
2022/11/24 05:33:47;;;;;;;13.67;11.90;;;;;;;9.81;100.00;-14877.13;5076720;28;20270;-61
2022/11/24 05:38:55;;;;;;;28.90;11.67;;;;;;;10.02;100.00;-14881.13;5092787;28;20199;-62
2022/11/24 05:41:22;;;;;;;31.23;11.57;;;;;;;9.74;100.00;-14558.16;5093058;28;20188;-61
2022/11/24 05:43:49;;;;;;;17.07;11.90;;;;;;;9.95;100.00;-14879.81;5093653;28;20188;-62
2022/11/24 05:46:15;;;;;;;27.83;14.33;;;;;;;10.04;100.00;-15199.28;5091523;28;20697;-61
2022/11/24 05:48:42;;;;;;;55.27;21.00;;;;;;;10.00;100.00;-15198.59;5092992;28;20192;-61
2022/11/24 05:51:11;;;;;;;43.93;18.33;;;;;;;9.92;100.00;-15514.63;5092961;28;20271;-61
2022/11/24 05:53:37;;;;;;;31.83;17.40;;;;;;;10.07;100.00;-15517.75;5093038;28;20717;-60
2022/11/24 05:56:05;;;;;;;47.10;16.23;;;;;;;10.06;100.00;-15835.28;5093211;28;20191;-62
2022/11/24 05:58:32;;;;;;;57.20;17.03;;;;;;;10.05;100.00;-15834.97;5092989;28;20206;-59
2022/11/24 06:00:59;;;;;;;74.13;18.70;;;;;;;10.10;100.00;-15836.00;5092916;28;20555;-61
2022/11/24 06:03:26;;;;;;;70.50;18.70;;;;;;;10.03;100.00;-16152.22;5092387;28;20194;-61
2022/11/24 06:05:53;;;;;;;50.93;17.43;;;;;;;9.83;100.00;-16148.03;5092336;28;20208;-61
2022/11/24 06:08:21;;;;;;;45.47;16.63;;;;;;;9.88;100.00;-15831.56;5093021;28;20547;-60
2022/11/24 06:10:48;;;;;;;40.17;16.73;;;;;;;10.08;100.00;-15835.59;5092408;28;20195;-61
2022/11/24 06:13:15;;;;;;;47.53;16.63;;;;;;;10.67;100.00;-16165.50;5092314;28;20278;-61
2022/11/24 06:15:41;;;;;;;36.07;15.93;;;;;;;11.06;100.00;-15537.19;5092140;28;20214;-61
2022/11/24 06:18:08;;;;;;;23.47;13.07;;;;;;;11.11;100.00;-15538.28;5092021;28;20188;-61
2022/11/24 06:20:35;;;;;;;25.83;12.37;;;;;;;11.42;100.00;-18090.88;5092082;28;20279;-61
2022/11/24 06:23:02;;;;;;;15.50;11.67;;;;;;;11.73;100.00;-14594.66;5092064;28;20185;-61
2022/11/24 06:25:31;;;;;;;26.40;11.87;;;;;;;11.97;100.00;-9813.28;5092212;28;20203;-61
2022/11/24 06:27:58;;;;;;;22.30;11.07;;;;;;;12.36;100.00;-2781.22;5091705;28;20194;-62
2022/11/24 06:30:25;;;;;;;22.33;10.27;;;;;;;12.90;100.00;5882.66;5090828;28;20236;-60
2022/11/24 06:32:55;;;;;;;14.07;10.73;;;;;;;13.43;100.00;21685.22;5091848;28;20227;-62
2022/11/24 06:35:21;;;;;;;24.80;10.87;;;;;;;13.70;100.00;39522.69;5091869;28;20182;-61
2022/11/24 06:37:48;;;;;;;16.37;11.13;;;;;;;13.82;100.00;39205.69;5091871;28;20196;-62
2022/11/24 06:40:16;;;;;;;45.60;13.00;;;;;;;14.24;100.00;43139.19;5092099;28;20180;-61
2022/11/24 06:42:50;;;;;;;34.10;12.83;;;;;;;14.74;100.00;69676.75;5092039;28;20295;-61
2022/11/24 06:45:17;;;;;;;32.97;12.13;;;;;;;14.86;100.00;87476.06;5091638;28;20297;-61
2022/11/24 06:47:44;;;;;;;31.30;12.83;;;;;;;15.03;100.00;105382.59;5091495;28;20184;-61
2022/11/24 06:50:12;;;;;;;16.13;11.17;;;;;;;15.24;100.00;113732.00;5091554;28;20372;-60
2022/11/24 06:52:40;;;;;;;16.33;9.23;;;;;;;15.02;100.00;104053.13;5092380;28;20618;-60
2022/11/24 06:55:08;;;;;;;21.00;9.83;;;;;;;14.89;100.00;118326.53;5091880;28;20198;-60
2022/11/24 06:57:35;;;;;;;17.27;8.87;;;;;;;15.14;100.00;114378.50;5091871;28;20192;-60
2022/11/24 07:00:04;;;;;;;10.37;8.90;;;;;;;14.76;100.00;104339.78;5091391;28;20188;-60
2022/11/24 07:02:31;;;;;;;13.20;9.70;;;;;;;14.94;100.00;107359.66;5091438;28;20249;-62
2022/11/24 07:04:59;;;;;;;20.70;10.67;;;;;;;14.63;100.00;86451.69;5086337;28;20229;-62
2022/11/24 07:07:30;;;;;;;20.53;10.97;;;;;;;14.53;100.00;76553.94;5090626;28;20581;-62
2022/11/24 07:10:01;;;;;;;22.43;10.97;;;;;;;14.58;100.00;69657.63;5087094;28;20200;-62
2022/11/24 07:12:31;;;;;;;38.67;13.60;;;;;;;14.62;100.00;57207.16;5089955;28;20238;-61
2022/11/24 07:14:58;;;;;;;39.23;13.87;;;;;;;14.31;100.00;52601.53;5089846;28;20192;-61
2022/11/24 07:17:26;;;;;;;32.60;12.17;;;;;;;14.49;100.00;46743.25;5091136;28;20650;-62
2022/11/24 07:19:53;;;;;;;21.30;11.00;;;;;;;14.44;100.00;40549.66;5091333;28;20231;-62
2022/11/24 07:22:20;;;;;;;23.30;10.20;;;;;;;14.72;100.00;45131.41;5090839;28;20663;-61
2022/11/24 07:24:47;;;;;;;45.57;12.80;;;;;;;15.08;100.00;68402.59;5091011;28;20661;-61
2022/11/24 07:27:17;;;;;;;32.53;12.07;;;;;;;14.92;100.00;71341.34;5090817;28;20224;-61
2022/11/24 07:29:44;;;;;;;28.43;12.77;;;;;;;14.88;100.00;57887.09;5091055;28;20188;-63
2022/11/24 07:32:24;;;;;;;20.03;11.80;;;;;;;15.15;100.00;64470.22;5090998;28;20184;-62
2022/11/24 07:34:52;;;;;;;12.50;11.03;;;;;;;15.40;100.00;88216.19;5084271;28;20191;-62
2022/11/24 07:37:19;;;;;;;19.97;12.10;;;;;;;15.96;100.00;133590.00;5073611;28;20232;-61
2022/11/24 07:39:49;;;;;;;16.57;11.70;;;;;;;16.33;100.00;150142.81;5072772;28;20191;-62
2022/11/24 07:42:16;;;;;;;21.20;12.27;;;;;;;17.00;100.00;150309.19;5074715;28;20189;-62
2022/11/24 07:44:43;;;;;;;15.90;12.03;;;;;;;17.49;100.00;150433.69;5074372;28;20322;-62
2022/11/24 07:47:10;;;;;;;13.00;11.67;;;;;;;17.77;100.00;150504.97;5072953;28;20282;-62
2022/11/24 07:49:37;;;;;;;12.67;11.20;;;;;;;17.68;100.00;150482.06;5074923;28;20544;-62
2022/11/24 07:52:05;;;;;;;14.47;11.73;;;;;;;17.86;100.00;150526.56;5074043;28;20253;-64
2022/11/24 07:54:36;;;;;;;15.77;12.10;;;;;;;17.64;100.00;150471.91;5082081;28;20562;-62
2022/11/24 07:57:03;;;;;;;23.87;12.13;;;;;;;17.35;100.00;150399.38;5085884;28;20273;-61
2022/11/24 07:59:30;;;;;;;23.47;12.57;;;;;;;17.07;100.00;150326.97;5094699;28;20181;-62
2022/11/24 08:01:59;;;;;;;45.20;14.93;;;;;;;17.41;100.00;150412.09;5094861;28;20181;-61
2022/11/24 08:04:26;;;;;;;38.47;13.63;;;;;;;17.47;100.00;150427.38;5094669;28;20188;-61
2022/11/24 08:06:53;;;;;;;34.00;15.47;;;;;;;17.88;100.00;150530.34;5094423;28;20208;-62
2022/11/24 08:09:21;;;;;;;20.13;13.27;;;;;;;17.26;100.00;150375.28;5094772;28;20589;-61
2022/11/24 08:11:48;;;;;;;20.37;13.37;;;;;;;16.86;100.00;150274.91;5094543;28;20271;-61
2022/11/24 08:14:15;;;;;;;23.77;14.13;;;;;;;16.65;100.00;150222.81;5094386;28;20192;-61
2022/11/24 08:16:42;;;;;;;35.93;16.80;;;;;;;16.31;100.00;150137.69;5093946;28;20184;-61
2022/11/24 08:19:10;;;;;;;28.97;15.30;;;;;;;16.27;100.00;150127.56;5086606;28;20223;-61
2022/11/24 08:21:37;;;;;;;25.40;15.07;;;;;;;16.38;100.00;150154.19;5094303;28;20199;-60
2022/11/24 08:24:05;;;;;;;26.13;15.10;;;;;;;17.11;100.00;150338.41;5094441;28;20203;-61
2022/11/24 08:26:34;;;;;;;44.57;16.07;;;;;;;17.17;100.00;150352.41;5094359;28;20300;-62
2022/11/24 08:29:01;;;;;;;30.47;15.50;;;;;;;17.34;100.00;150395.59;5087858;28;20283;-62
2022/11/24 08:31:33;;;;;;;35.83;16.90;;;;;;;17.29;100.00;150384.16;5093787;28;20653;-62
2022/11/24 08:34:00;;;;;;;35.77;16.13;;;;;;;17.78;100.00;150507.47;5093795;28;20263;-62
2022/11/24 08:36:27;;;;;;;24.77;16.47;;;;;;;18.00;100.00;150562.13;5094007;28;20283;-62
2022/11/24 08:38:56;;;;;;;38.37;18.47;;;;;;;18.96;100.00;150802.56;5093506;28;20196;-61
2022/11/24 08:41:23;;;;;;;58.43;19.27;;;;;;;19.85;100.00;151026.56;5093927;28;20177;-61
2022/11/24 08:43:52;;;;;;;54.57;17.90;;;;;;;20.51;100.00;151194.66;5093791;28;20284;-62
2022/11/24 08:46:19;;;;;;;18.90;15.00;;;;;;;20.37;100.00;151159.00;5094217;28;20212;-62
2022/11/24 08:48:48;;;;;;;30.60;17.27;;;;;;;19.99;100.00;151062.19;5094334;28;20271;-62
2022/11/24 08:51:17;;;;;;;31.13;17.17;;;;;;;19.91;100.00;151043.09;5093268;28;20198;-62
2022/11/24 08:53:45;;;;;;;24.27;16.70;;;;;;;19.86;100.00;151030.34;5093867;28;20188;-61
2022/11/24 08:56:13;;;;;;;27.73;19.97;;;;;;;19.40;100.00;150914.50;5094338;28;20186;-61
2022/11/24 08:58:41;;;;;;;36.90;24.07;;;;;;;18.48;100.00;150681.66;5086103;28;20562;-62
2022/11/24 09:01:11;;;;;;;43.60;26.00;;;;;;;18.55;100.00;150700.75;5084942;28;20261;-61
2022/11/24 09:03:38;;;;;;;40.27;26.67;;;;;;;18.31;100.00;150639.69;5093740;28;20187;-63
2022/11/24 09:06:07;;;;;;;42.87;27.83;;;;;;;17.80;100.00;150512.56;5093204;28;20215;-62
2022/11/24 09:08:35;;;;;;;41.17;29.87;;;;;;;17.34;100.00;150396.88;5093770;28;20192;-60
2022/11/24 09:11:04;;;;;;;44.00;31.40;;;;;;;17.34;100.00;150395.59;5093722;28;20237;-62
2022/11/24 09:13:31;;;;;;;49.83;31.07;;;;;;;16.97;100.00;150302.88;5093734;28;20184;-61
2022/11/24 09:16:06;;;;;;;50.70;37.13;;;;;;;16.66;100.00;150225.38;5093529;28;20662;-61
2022/11/24 09:18:35;;;;;;;50.37;34.00;;;;;;;16.27;100.00;119602.53;5093536;28;20184;-60
2022/11/24 09:21:08;;;;;;;55.13;34.53;;;;;;;15.53;100.00;80969.56;5090153;28;20318;-61
2022/11/24 09:23:36;;;;;;;51.47;33.90;;;;;;;15.73;100.00;56333.00;5093005;28;20188;-61
2022/11/24 09:26:04;;;;;;;51.87;32.00;;;;;;;15.65;100.00;58947.22;5090113;28;20199;-61
2022/11/24 09:28:31;;;;;;;56.67;31.33;;;;;;;15.51;100.00;50747.78;5092921;28;20191;-62
2022/11/24 09:31:01;;;;;;;63.77;32.10;;;;;;;15.13;100.00;34413.31;5093235;28;20198;-62
2022/11/24 09:33:28;;;;;;;57.10;32.77;;;;;;;15.33;100.00;33775.00;5093018;28;20228;-61
2022/11/24 09:35:57;;;;;;;44.03;31.93;;;;;;;15.19;100.00;25322.13;5093427;28;20196;-61
2022/11/24 09:38:24;;;;;;;53.57;33.87;;;;;;;15.06;100.00;15277.88;5089910;28;20249;-61
2022/11/24 09:40:52;;;;;;;110.10;39.77;;;;;;;15.00;100.00;8493.88;5092428;28;20184;-60
2022/11/24 09:43:32;;;;;;;908.60;609.07;;;;;;;15.00;100.00;4946.72;5088892;28;20275;-62
2022/11/24 09:46:08;;;;;;;119.10;65.90;;;;;;;14.67;100.00;1722.75;5089992;28;20656;-62
2022/11/24 09:48:40;;;;;;;62.60;35.43;;;;;;;14.75;100.00;3654.97;5092538;28;20188;-62
2022/11/24 09:51:12;;;;;;;121.67;58.67;;;;;;;14.94;100.00;3657.19;5092429;28;20192;-62
2022/11/24 09:53:44;;;;;;;117.27;47.57;;;;;;;14.75;100.00;4943.34;5093595;28;20180;-61
2022/11/24 09:56:20;;;;;;;274.30;160.97;;;;;;;14.94;100.00;4623.66;5092999;28;20180;-61
2022/11/24 09:58:49;;;;;;;73.17;35.10;;;;;;;14.94;100.00;1081.09;5093073;28;20217;-61
2022/11/24 10:01:18;;;;;;;56.27;33.23;;;;;;;14.94;100.00;2046.91;5083994;28;20192;-60
2022/11/24 10:03:47;;;;;;;58.33;32.83;;;;;;;14.99;100.00;4302.13;5087980;28;20283;-61
2022/11/24 10:06:24;;;;;;;52.23;29.90;;;;;;;14.82;100.00;4622.19;5082837;28;20566;-61
2022/11/24 10:09:30;;;;;;;61.83;30.17;;;;;;;14.77;100.00;436.41;5072009;28;20263;-60
2022/11/24 10:12:06;;;;;;;59.10;26.77;;;;;;;14.85;100.00;-4386.09;5069518;28;20710;-61
2022/11/24 10:14:56;;;;;;;48.27;26.23;;;;;;;14.86;100.00;-4386.13;5080958;28;20205;-60
2022/11/24 10:17:37;;;;;;;113.00;61.27;;;;;;;14.83;100.00;-4064.75;5086817;28;20203;-61
2022/11/24 10:20:12;;;;;;;119.73;72.53;;;;;;;15.09;100.00;-849.00;5086948;28;20192;-60
2022/11/24 10:22:51;;;;;;;151.60;92.43;;;;;;;15.13;100.00;-527.06;5090460;28;20765;-61
2022/11/24 10:25:24;;;;;;;64.40;34.23;;;;;;;15.12;100.00;-2457.38;5091756;28;20570;-61
2022/11/24 10:27:56;;;;;;;630.53;128.27;;;;;;;15.21;100.00;-3422.13;5091974;28;20208;-61
2022/11/24 10:30:23;;;;;;;430.93;364.17;;;;;;;14.83;100.00;-4064.75;5092428;28;20181;-60
2022/11/24 10:32:59;;;;;;;54.33;31.93;;;;;;;15.12;100.00;-4386.56;5091861;28;20228;-60
2022/11/24 10:35:36;;;;;;;449.27;360.40;;;;;;;15.09;100.00;-5671.94;5089352;28;20195;-61
2022/11/24 10:38:16;;;;;;;44.57;25.53;;;;;;;15.07;100.00;-6314.38;5088315;28;20196;-62
2022/11/24 10:40:48;;;;;;;45.03;25.43;;;;;;;15.06;100.00;-6635.53;5072050;28;20192;-61
2022/11/24 10:43:15;;;;;;;30.97;24.27;;;;;;;15.08;100.00;-7920.16;5071941;28;20275;-60
2022/11/24 10:45:42;;;;;;;26.93;20.93;;;;;;;14.91;100.00;-7918.84;5083435;28;20199;-62
2022/11/24 10:48:18;;;;;;;44.40;23.60;;;;;;;14.94;100.00;-9844.53;5092002;28;20240;-61
2022/11/24 10:50:45;;;;;;;35.53;22.67;;;;;;;14.94;100.00;-11127.50;5091341;28;20223;-62
2022/11/24 10:53:20;;;;;;;48.63;23.53;;;;;;;14.82;100.00;-12408.19;5091105;28;20188;-60
2022/11/24 10:56:01;;;;;;;58.73;29.93;;;;;;;14.95;100.00;-12730.56;5091720;28;20230;-61
2022/11/24 10:58:32;;;;;;;254.33;160.90;;;;;;;14.87;100.00;-12088.41;5091836;28;20279;-61
2022/11/24 11:01:01;;;;;;;79.47;45.10;;;;;;;14.93;100.00;-12089.25;5092364;28;20615;-61
2022/11/24 11:03:31;;;;;;;466.77;278.90;;;;;;;14.93;100.00;-11447.97;5091559;28;20188;-61
2022/11/24 11:06:03;;;;;;;156.47;104.77;;;;;;;14.93;100.00;-11768.59;5091648;28;20275;-62
2022/11/24 11:08:32;;;;;;;52.83;30.93;;;;;;;14.86;100.00;-12088.25;5091492;28;20212;-60
2022/11/24 11:11:19;;;;;;;78.57;41.27;;;;;;;14.91;100.00;-12409.53;5091248;28;20267;-61
2022/11/24 18:48:03;;;;;;;6.53;6.23;;;;;;;8.80;100.00;56962.66;5048725;28;21056;-61
2022/11/24 18:50:32;;;;;;;7.23;6.77;;;;;;;8.73;100.00;61820.63;5032306;28;20221;-61
2022/11/24 18:53:01;;;;;;;6.53;6.13;;;;;;;8.82;100.00;64752.09;5031870;28;20201;-61
2022/11/24 18:55:28;;;;;;;6.60;6.30;;;;;;;8.83;100.00;64428.94;5032453;28;20202;-61